Time;durP1;ratioP1;P1;durP2;ratioP2;P2;SDS_P1;SDS_P2;PMS_P1;PMS_P2;Temp;Humidity;BMP_temperature;BMP_pressure;BME280_temperature;BME280_humidity;BME280_pressure;Samples;Min_cycle;Max_cycle;Signal;HPM_P1;HPM_P2
2020/08/24 00:01:05;;;;;;;3.5;1.1;;;;;;;17.88;70.51465;961.2172;;;;
2020/08/24 00:03:30;;;;;;;3.3;1.1;;;;;;;17.89;71.95508;961.2263;;;;
2020/08/24 00:05:55;;;;;;;2.9;1.2;;;;;;;17.8;71.32031;961.1797;;;;
2020/08/24 00:08:23;;;;;;;2.7;1.2;;;;;;;17.86;71.8457;961.2075;;;;
2020/08/24 00:10:48;;;;;;;2.4;0.9;;;;;;;17.86;71.38965;961.2199;;;;
2020/08/24 00:13:14;;;;;;;1.8;0.9;;;;;;;17.92;71.77441;961.2022;;;;
2020/08/24 00:15:39;;;;;;;2.2;0.9;;;;;;;17.85;71.43457;961.139;;;;
2020/08/24 00:18:04;;;;;;;1.8;0.9;;;;;;;17.91;71;961.1426;;;;
2020/08/24 00:20:29;;;;;;;2.9;1.2;;;;;;;17.99;70.84766;961.1431;;;;
2020/08/24 00:22:54;;;;;;;2;1.1;;;;;;;17.76;72.01563;961.1376;;;;
2020/08/24 00:25:19;;;;;;;2;1.1;;;;;;;17.68;72.02539;961.1524;;;;
2020/08/24 00:27:44;;;;;;;3.8;1;;;;;;;17.79;72.33691;961.123;;;;
2020/08/24 00:30:09;;;;;;;1.9;1;;;;;;;17.75;73.34961;961.0406;;;;
2020/08/24 00:32:34;;;;;;;3.3;1.2;;;;;;;17.7;71.31641;961.0424;;;;
2020/08/24 00:35:00;;;;;;;2.1;1;;;;;;;17.75;73.08008;960.9944;;;;
2020/08/24 00:37:25;;;;;;;3.5;1.3;;;;;;;17.65;71.08496;960.985;;;;
2020/08/24 00:39:51;;;;;;;4.3;1.2;;;;;;;17.73;70.64258;960.9606;;;;
2020/08/24 00:42:16;;;;;;;4.6;1.1;;;;;;;17.73;70.2207;960.9812;;;;
2020/08/24 00:44:41;;;;;;;1.7;1;;;;;;;17.82;70.65625;960.9481;;;;
2020/08/24 00:47:06;;;;;;;1.9;0.8;;;;;;;17.8;70.1875;960.9227;;;;
2020/08/24 00:49:34;;;;;;;3;1.2;;;;;;;17.79;69.41211;960.8748;;;;
2020/08/24 00:51:59;;;;;;;2;1;;;;;;;17.66;69.49707;960.8367;;;;
2020/08/24 00:54:24;;;;;;;2.7;1.1;;;;;;;17.63;69.5498;960.8122;;;;
2020/08/24 00:57:10;;;;;;;3.2;1.1;;;;;;;17.67;69.7793;960.863;;;;
2020/08/24 00:59:14;;;;;;;3;1.1;;;;;;;17.74;69.66113;960.8286;;;;
2020/08/24 01:01:43;;;;;;;5.3;1.2;;;;;;;17.62;70.58984;960.748;;;;
2020/08/24 01:04:14;;;;;;;3.6;1;;;;;;;17.57;71.20117;960.7358;;;;
2020/08/24 01:06:43;;;;;;;2.7;1;;;;;;;17.45;71.42773;960.7275;;;;
2020/08/24 01:09:21;;;;;;;2.7;1.2;;;;;;;17.45;73.2168;960.7053;;;;
2020/08/24 01:12:10;;;;;;;2.9;1.2;;;;;;;17.38;73.54492;960.7123;;;;
2020/08/24 01:14:55;;;;;;;2.8;1;;;;;;;17.36;74.40527;960.7305;;;;
2020/08/24 01:17:34;;;;;;;2.7;1;;;;;;;17.4;75.39551;960.7327;;;;
2020/08/24 01:20:05;;;;;;;2.6;1.2;;;;;;;17.36;76.86035;960.6778;;;;
2020/08/24 01:22:43;;;;;;;3.4;1.3;;;;;;;17.26;77.66113;960.6758;;;;
2020/08/24 01:25:12;;;;;;;5.2;1.6;;;;;;;17.14;79.88281;960.687;;;;
2020/08/24 01:27:37;;;;;;;2.7;1.1;;;;;;;17.2;79.12305;960.6877;;;;
2020/08/24 01:30:04;;;;;;;4;1.4;;;;;;;16.99;80.37012;960.5806;;;;
2020/08/24 01:32:35;;;;;;;4.1;1.3;;;;;;;17.07;81.29688;960.6027;;;;
2020/08/24 01:35:12;;;;;;;4.4;1.3;;;;;;;17.06;81.29492;960.6604;;;;
2020/08/24 01:37:44;;;;;;;4.6;1.3;;;;;;;16.99;81.90039;960.6814;;;;
2020/08/24 01:40:13;;;;;;;3.4;1.2;;;;;;;16.95;82.7002;960.7209;;;;
2020/08/24 01:42:38;;;;;;;4.8;1.3;;;;;;;16.84;82.92285;960.6894;;;;
2020/08/24 01:45:12;;;;;;;3.2;1.3;;;;;;;16.66;84.05664;960.7141;;;;
2020/08/24 01:47:46;;;;;;;3.5;1.2;;;;;;;16.77;84.06738;960.6721;;;;
2020/08/24 01:50:17;;;;;;;4;1.5;;;;;;;16.84;85.35156;960.6614;;;;
2020/08/24 01:52:49;;;;;;;2.5;1.2;;;;;;;16.7;85.10156;960.7059;;;;
2020/08/24 01:55:21;;;;;;;3.1;1.5;;;;;;;16.64;85.58203;960.6592;;;;
2020/08/24 01:57:48;;;;;;;3.7;1.2;;;;;;;16.62;85.61328;960.6459;;;;
2020/08/24 02:00:13;;;;;;;4;1.4;;;;;;;16.54;84.55859;960.6785;;;;
2020/08/24 02:02:41;;;;;;;3.5;1.3;;;;;;;16.39;87.00391;960.6738;;;;
2020/08/24 02:05:10;;;;;;;6.6;1.6;;;;;;;16.39;87.73926;960.6805;;;;
2020/08/24 02:07:35;;;;;;;2.8;1.2;;;;;;;16.5;88.15527;960.6941;;;;
2020/08/24 02:10:07;;;;;;;2.6;1.1;;;;;;;16.49;86.87207;960.6414;;;;
2020/08/24 02:12:39;;;;;;;3.8;1.4;;;;;;;16.42;87.2998;960.5905;;;;
2020/08/24 02:15:04;;;;;;;2.9;1.2;;;;;;;;;;;;;
2020/08/24 02:17:29;;;;;;;4.1;1.3;;;;;;;;;;;;;
2020/08/24 02:19:54;;;;;;;3.1;1.3;;;;;;;;;;;;;
2020/08/24 02:22:19;;;;;;;2;1.2;;;;;;;;;;;;;
2020/08/24 02:24:44;;;;;;;3.6;1.4;;;;;;;;;;;;;
2020/08/24 02:27:10;;;;;;;2.7;1.4;;;;;;;;;;;;;
2020/08/24 02:29:35;;;;;;;3.4;1.5;;;;;;;;;;;;;
2020/08/24 02:32:02;;;;;;;3.9;1.3;;;;;;;;;;;;;
2020/08/24 02:34:27;;;;;;;5.9;1.6;;;;;;;;;;;;;
2020/08/24 02:36:52;;;;;;;4.3;1.4;;;;;;;;;;;;;
2020/08/24 02:39:17;;;;;;;2.6;1.3;;;;;;;;;;;;;
2020/08/24 02:41:42;;;;;;;3.6;1.1;;;;;;;;;;;;;
2020/08/24 02:44:09;;;;;;;3.3;1.3;;;;;;;;;;;;;
2020/08/24 02:46:34;;;;;;;2.5;1.3;;;;;;;;;;;;;
2020/08/24 02:48:59;;;;;;;2.4;1.2;;;;;;;;;;;;;
2020/08/24 02:51:25;;;;;;;2.7;1.2;;;;;;;;;;;;;
2020/08/24 02:53:50;;;;;;;3.8;1.3;;;;;;;;;;;;;
2020/08/24 02:56:15;;;;;;;2.6;1.4;;;;;;;;;;;;;
2020/08/24 02:58:40;;;;;;;3.4;1.2;;;;;;;;;;;;;
2020/08/24 03:01:10;;;;;;;2.7;1.3;;;;;;;;;;;;;
2020/08/24 03:03:35;;;;;;;2.3;1.1;;;;;;;;;;;;;
2020/08/24 03:06:00;;;;;;;3.2;1.4;;;;;;;;;;;;;
2020/08/24 03:08:25;;;;;;;4.4;1.2;;;;;;;;;;;;;
2020/08/24 03:10:51;;;;;;;5.7;1.5;;;;;;;;;;;;;
2020/08/24 03:13:16;;;;;;;3.2;1.5;;;;;;;;;;;;;
2020/08/24 03:15:44;;;;;;;6.3;1.3;;;;;;;;;;;;;
2020/08/24 03:18:09;;;;;;;3.1;1.3;;;;;;;;;;;;;
2020/08/24 03:20:34;;;;;;;2.8;1.3;;;;;;;;;;;;;
2020/08/24 03:22:59;;;;;;;3.5;1.5;;;;;;;;;;;;;
2020/08/24 03:25:24;;;;;;;2.8;1.4;;;;;;;;;;;;;
2020/08/24 03:27:52;;;;;;;3.9;1.1;;;;;;;;;;;;;
2020/08/24 03:30:17;;;;;;;2;1.2;;;;;;;;;;;;;
2020/08/24 03:32:43;;;;;;;2.4;1.1;;;;;;;;;;;;;
2020/08/24 03:35:08;;;;;;;2.7;1.3;;;;;;;;;;;;;
2020/08/24 03:37:35;;;;;;;3.5;1.5;;;;;;;;;;;;;
2020/08/24 03:40:00;;;;;;;2.7;1.2;;;;;;;;;;;;;
2020/08/24 03:42:25;;;;;;;3;1.4;;;;;;;;;;;;;
2020/08/24 03:44:51;;;;;;;3.8;1.2;;;;;;;;;;;;;
2020/08/24 03:47:16;;;;;;;2.9;1.4;;;;;;;;;;;;;
2020/08/24 03:49:42;;;;;;;5;1.6;;;;;;;;;;;;;
2020/08/24 03:52:07;;;;;;;2.8;1.3;;;;;;;;;;;;;
2020/08/24 03:54:32;;;;;;;3.7;1.5;;;;;;;;;;;;;
2020/08/24 03:56:57;;;;;;;3.5;1.4;;;;;;;;;;;;;
2020/08/24 03:59:22;;;;;;;2.1;1.2;;;;;;;;;;;;;
2020/08/24 04:02:30;;;;;;;3;1.3;;;;;;;15.73;91.33301;960.1959;;;;
2020/08/24 04:04:55;;;;;;;5.4;1.3;;;;;;;15.85;93.76953;960.1308;;;;
2020/08/24 04:07:21;;;;;;;4.7;1.5;;;;;;;15.86;94.31836;960.1367;;;;
2020/08/24 04:09:46;;;;;;;4.1;1.4;;;;;;;15.81;94.63281;960.1218;;;;
2020/08/24 04:12:15;;;;;;;4.3;1.4;;;;;;;15.77;92.05176;960.1293;;;;
2020/08/24 04:14:40;;;;;;;4.5;1.5;;;;;;;15.86;94.32813;960.0989;;;;
2020/08/24 04:17:05;;;;;;;3.3;1.6;;;;;;;15.84;94.45215;960.1367;;;;
2020/08/24 04:19:35;;;;;;;3.8;1.5;;;;;;;15.89;98.23926;960.1367;;;;
2020/08/24 04:22:00;;;;;;;4;1.6;;;;;;;15.88;97.1416;960.125;;;;
2020/08/24 04:24:26;;;;;;;3.9;1.6;;;;;;;15.81;100;960.0775;;;;
2020/08/24 04:26:51;;;;;;;4.1;1.6;;;;;;;15.85;98.33594;960.1177;;;;
2020/08/24 04:29:16;;;;;;;2.6;1.6;;;;;;;15.84;98.60156;960.1103;;;;
2020/08/24 04:31:46;;;;;;;3.8;1.7;;;;;;;15.88;98.78418;960.0912;;;;
2020/08/24 04:34:17;;;;;;;2.6;1.5;;;;;;;15.93;98.39844;960.1439;;;;
2020/08/24 04:36:42;;;;;;;4.6;1.6;;;;;;;15.95;98.84766;960.1694;;;;
2020/08/24 04:39:07;;;;;;;2.9;1.5;;;;;;;15.94;96.68945;960.1225;;;;
2020/08/24 04:41:33;;;;;;;3;1.4;;;;;;;15.96;97.25098;960.1292;;;;
2020/08/24 04:44:13;;;;;;;4.3;1.7;;;;;;;15.89;97.71484;960.1088;;;;
2020/08/24 04:46:46;;;;;;;3;1.4;;;;;;;15.95;92.2168;960.1448;;;;
2020/08/24 04:49:21;;;;;;;2.6;1.2;;;;;;;16.06;89.61719;960.1191;;;;
2020/08/24 04:51:47;;;;;;;4.3;1.7;;;;;;;16.13;87.37012;960.1454;;;;
2020/08/24 04:54:15;;;;;;;5.6;2;;;;;;;16.21;88.90234;960.15;;;;
2020/08/24 04:56:47;;;;;;;4.1;1.5;;;;;;;16.24;88.60449;960.1705;;;;
2020/08/24 04:59:20;;;;;;;3.2;1.5;;;;;;;16.25;86.00586;960.1961;;;;
2020/08/24 05:01:46;;;;;;;4.2;1.4;;;;;;;16.2;84.5166;960.2249;;;;
2020/08/24 05:04:15;;;;;;;4.5;1.6;;;;;;;16.29;85.20898;960.1853;;;;
2020/08/24 05:06:40;;;;;;;3;1.3;;;;;;;16.38;83.34766;960.2106;;;;
2020/08/24 05:09:05;;;;;;;3.2;1.3;;;;;;;16.41;84.01953;960.1776;;;;
2020/08/24 05:11:35;;;;;;;2.6;1.3;;;;;;;16.45;82.56836;960.1774;;;;
2020/08/24 05:14:07;;;;;;;2.4;1.2;;;;;;;16.45;81.6582;960.184;;;;
2020/08/24 05:16:33;;;;;;;3;1.4;;;;;;;16.5;83.79199;960.2218;;;;
2020/08/24 05:18:58;;;;;;;3.1;1.4;;;;;;;16.44;82.64844;960.2121;;;;
2020/08/24 05:21:23;;;;;;;4.2;1.2;;;;;;;16.3;81.58496;960.2241;;;;
2020/08/24 05:23:50;;;;;;;3;1.3;;;;;;;16.42;82.88965;960.2458;;;;
2020/08/24 05:26:20;;;;;;;2.7;1.5;;;;;;;16.45;81.34375;960.2341;;;;
2020/08/24 05:28:46;;;;;;;3.3;1.6;;;;;;;16.47;81.17383;960.2786;;;;
2020/08/24 05:31:13;;;;;;;3.3;1.7;;;;;;;16.52;81.05371;960.3;;;;
2020/08/24 05:33:39;;;;;;;3.1;1.4;;;;;;;16.55;81.00195;960.3205;;;;
2020/08/24 05:36:12;;;;;;;2.6;1.4;;;;;;;16.46;80.85547;960.3454;;;;
2020/08/24 05:38:37;;;;;;;3.4;1.4;;;;;;;16.36;81.44531;960.3372;;;;
2020/08/24 05:41:02;;;;;;;2.3;1.2;;;;;;;16.37;83.38281;960.3251;;;;
2020/08/24 05:43:30;;;;;;;3.7;1.6;;;;;;;16.39;83.25684;960.2994;;;;
2020/08/24 05:45:59;;;;;;;4.2;1.9;;;;;;;16.32;82.17188;960.3736;;;;
2020/08/24 05:48:29;;;;;;;2.9;1.5;;;;;;;16.49;81.7373;960.3667;;;;
2020/08/24 05:51:03;;;;;;;6.4;2.1;;;;;;;16.49;84.09375;960.3379;;;;
2020/08/24 05:53:30;;;;;;;3.7;1.5;;;;;;;16.42;85.35352;960.3563;;;;
2020/08/24 05:55:56;;;;;;;4.2;1.5;;;;;;;16.29;84.74219;960.3647;;;;
2020/08/24 05:58:21;;;;;;;3.9;1.7;;;;;;;16.31;84.39746;960.3565;;;;
2020/08/24 06:00:57;;;;;;;3;1.6;;;;;;;16.38;82.29883;960.3488;;;;
2020/08/24 06:03:22;;;;;;;3.8;1.4;;;;;;;16.51;81.69531;960.3782;;;;
2020/08/24 06:05:54;;;;;;;4.4;1.4;;;;;;;16.48;82.55176;960.3725;;;;
2020/08/24 06:08:28;;;;;;;3.5;1.4;;;;;;;16.46;82.0918;960.3454;;;;
2020/08/24 06:22:20;;;;;;;4.9;1.4;;;;;;;16.55;81.30566;960.3411;;;;
2020/08/24 06:24:54;;;;;;;5.1;1.3;;;;;;;16.61;79.85645;960.3072;;;;
2020/08/24 06:27:28;;;;;;;4.6;1.5;;;;;;;16.71;79.66406;960.3256;;;;
2020/08/24 06:29:54;;;;;;;5.3;1.3;;;;;;;16.88;78.90137;960.2751;;;;
2020/08/24 06:32:19;;;;;;;3;1.4;;;;;;;16.94;77.41797;960.2732;;;;
2020/08/24 06:34:45;;;;;;;3.8;1.5;;;;;;;16.86;75.99219;960.2347;;;;
2020/08/24 06:37:18;;;;;;;3.8;1.2;;;;;;;17.04;76.22168;960.2216;;;;
2020/08/24 06:39:51;;;;;;;1.9;1.4;;;;;;;17.1;75.79883;960.1883;;;;
2020/08/24 06:42:20;;;;;;;4.3;1.3;;;;;;;17.23;75.47168;960.1998;;;;
2020/08/24 06:44:52;;;;;;;3.4;1.3;;;;;;;17.23;74.17383;960.1564;;;;
2020/08/24 06:47:18;;;;;;;5.7;1.6;;;;;;;17.36;75.42285;960.1464;;;;
2020/08/24 06:49:45;;;;;;;5.3;1.4;;;;;;;17.52;74.31641;960.1627;;;;
2020/08/24 06:52:12;;;;;;;5.5;2.1;;;;;;;17.54;72.15723;960.2094;;;;
2020/08/24 06:54:43;;;;;;;3;1.5;;;;;;;17.48;70.21777;960.1834;;;;
2020/08/24 06:57:09;;;;;;;2.9;1.2;;;;;;;17.61;70.9375;960.1315;;;;
2020/08/24 06:59:34;;;;;;;5;1.1;;;;;;;17.66;72.0127;960.1855;;;;
2020/08/24 07:02:04;;;;;;;2.3;1.1;;;;;;;17.76;71.02051;960.1905;;;;
2020/08/24 07:04:29;;;;;;;4.1;1.2;;;;;;;17.61;68.28418;960.3119;;;;
2020/08/24 07:06:54;;;;;;;5.4;1.1;;;;;;;17.56;70.125;960.2745;;;;
2020/08/24 07:09:19;;;;;;;5.2;1.4;;;;;;;17.45;67.31152;960.3172;;;;
2020/08/24 07:11:49;;;;;;;3.2;1.3;;;;;;;17.49;67.20215;960.3292;;;;
2020/08/24 07:14:19;;;;;;;2.7;1;;;;;;;17.67;69.93164;960.3212;;;;
2020/08/24 07:16:48;;;;;;;3.2;1.1;;;;;;;17.62;67.44336;960.34;;;;
2020/08/24 07:19:13;;;;;;;2.8;1.2;;;;;;;17.63;67.85449;960.3373;;;;
2020/08/24 07:21:43;;;;;;;3.7;1.4;;;;;;;17.63;68.91895;960.377;;;;
2020/08/24 07:24:12;;;;;;;4.2;1.1;;;;;;;17.64;68.14746;960.3974;;;;
2020/08/24 07:26:37;;;;;;;2.5;1.1;;;;;;;17.64;66.32422;960.4592;;;;
2020/08/24 07:29:02;;;;;;;4.6;1.2;;;;;;;17.72;64.93262;960.4579;;;;
2020/08/24 07:31:27;;;;;;;2.6;1.1;;;;;;;17.73;65.17871;960.4511;;;;
2020/08/24 07:33:53;;;;;;;3;1.2;;;;;;;17.8;66.12695;960.5038;;;;
2020/08/24 07:36:18;;;;;;;3.2;1.2;;;;;;;17.73;66.81641;960.5179;;;;
2020/08/24 07:38:43;;;;;;;2.7;0.9;;;;;;;17.66;66.94727;960.5078;;;;
2020/08/24 07:41:08;;;;;;;3.1;0.9;;;;;;;17.79;65.72559;960.5203;;;;
2020/08/24 07:43:33;;;;;;;4.6;1.4;;;;;;;17.94;67.63379;960.5767;;;;
2020/08/24 07:46:02;;;;;;;2.8;1.1;;;;;;;17.81;65.85742;960.5475;;;;
2020/08/24 07:48:27;;;;;;;3.8;1.2;;;;;;;17.92;65.86133;960.5595;;;;
2020/08/24 07:50:56;;;;;;;5;1;;;;;;;17.96;64.61621;960.5133;;;;
2020/08/24 07:53:21;;;;;;;2.5;1.2;;;;;;;18.03;65.00098;960.5175;;;;
2020/08/24 07:55:46;;;;;;;3.2;1.1;;;;;;;18.14;63.92773;960.5662;;;;
2020/08/24 07:58:11;;;;;;;5.8;1.3;;;;;;;18.27;66.96973;960.5095;;;;
2020/08/24 08:00:38;;;;;;;4.5;1.1;;;;;;;18.27;65.17773;960.4824;;;;
2020/08/24 08:03:03;;;;;;;4.1;1.4;;;;;;;18.36;64.76855;960.4938;;;;
2020/08/24 08:05:32;;;;;;;3.5;1.2;;;;;;;18.5;66.20801;960.49;;;;
2020/08/24 08:07:59;;;;;;;2;1;;;;;;;18.1;67.52832;960.4691;;;;
2020/08/24 08:10:24;;;;;;;3;1.1;;;;;;;18.04;65.03711;960.4565;;;;
2020/08/24 08:12:52;;;;;;;3.7;1.4;;;;;;;18.23;66.77539;960.4656;;;;
2020/08/24 08:15:23;;;;;;;6.7;1.3;;;;;;;18.37;64.12598;960.5055;;;;
2020/08/24 08:18:07;;;;;;;3.9;1.3;;;;;;;18.55;62.93164;960.4567;;;;
2020/08/24 08:20:32;;;;;;;4.3;1.3;;;;;;;18.58;60.95605;960.5207;;;;
2020/08/24 08:22:57;;;;;;;3.7;1;;;;;;;18.32;62.30176;960.468;;;;
2020/08/24 08:25:24;;;;;;;2.7;1;;;;;;;18.44;62.36523;960.4949;;;;
2020/08/24 08:27:49;;;;;;;3.1;1.1;;;;;;;18.62;64.08008;960.4722;;;;
2020/08/24 08:30:14;;;;;;;2.9;1.2;;;;;;;18.81;67.30957;960.5149;;;;
2020/08/24 08:32:44;;;;;;;3.1;1;;;;;;;18.76;68.32324;960.4702;;;;
2020/08/24 08:35:13;;;;;;;2.9;1.2;;;;;;;18.76;66.96094;960.486;;;;
2020/08/24 08:37:38;;;;;;;3.2;1;;;;;;;18.84;63.86621;960.4484;;;;
2020/08/24 08:40:06;;;;;;;1.9;0.9;;;;;;;18.96;62.81445;960.4727;;;;
2020/08/24 08:42:33;;;;;;;4.9;1.1;;;;;;;18.87;61.66504;960.4771;;;;
2020/08/24 08:44:58;;;;;;;2;0.9;;;;;;;18.91;63.58203;960.4816;;;;
2020/08/24 08:47:24;;;;;;;3.3;1.1;;;;;;;18.99;62.94727;960.5111;;;;
2020/08/24 08:49:50;;;;;;;3.5;1;;;;;;;18.92;61.98828;960.4402;;;;
2020/08/24 08:52:18;;;;;;;1.8;1;;;;;;;18.79;61.40723;960.4683;;;;
2020/08/24 08:54:43;;;;;;;3.6;1.2;;;;;;;18.79;62.04102;960.493;;;;
2020/08/24 08:57:08;;;;;;;3.3;1;;;;;;;18.86;61.44141;960.5218;;;;
2020/08/24 08:59:33;;;;;;;2.9;0.9;;;;;;;18.89;60.38867;960.4917;;;;
2020/08/24 09:01:59;;;;;;;1.9;0.8;;;;;;;18.52;57.89941;960.5667;;;;
2020/08/24 09:04:24;;;;;;;3.2;0.9;;;;;;;18.64;57.74023;960.5217;;;;
2020/08/24 09:06:49;;;;;;;2.8;0.9;;;;;;;18.62;57.11621;960.563;;;;
2020/08/24 09:09:14;;;;;;;2.9;0.8;;;;;;;18.94;61.67383;960.5623;;;;
2020/08/24 09:11:39;;;;;;;2.8;1;;;;;;;18.99;59.18262;960.5408;;;;
2020/08/24 09:14:04;;;;;;;3.8;1.1;;;;;;;19.02;60.16016;960.5264;;;;
2020/08/24 09:16:32;;;;;;;3;0.7;;;;;;;19.21;58.1084;960.5325;;;;
2020/08/24 09:18:58;;;;;;;2.8;0.9;;;;;;;19.4;58.9541;960.5017;;;;
2020/08/24 09:21:23;;;;;;;2.3;1;;;;;;;19.16;58.50098;960.5213;;;;
2020/08/24 09:23:49;;;;;;;3.2;0.9;;;;;;;19.23;59.32031;960.5261;;;;
2020/08/24 09:26:14;;;;;;;4.5;1;;;;;;;19.11;59.77344;960.4955;;;;
2020/08/24 09:28:40;;;;;;;2.4;1;;;;;;;19.49;58.08691;960.502;;;;
2020/08/24 09:31:05;;;;;;;3.7;1.2;;;;;;;19.25;59.23047;960.5019;;;;
2020/08/24 09:33:35;;;;;;;3.3;0.9;;;;;;;19.42;61.4248;960.4253;;;;
2020/08/24 09:36:06;;;;;;;2.8;1;;;;;;;19.56;58.58789;960.4571;;;;
2020/08/24 09:38:31;;;;;;;2.2;0.8;;;;;;;19.68;59.56836;960.4391;;;;
2020/08/24 09:40:56;;;;;;;3.2;0.9;;;;;;;19.47;59.95117;960.3857;;;;
2020/08/24 09:43:21;;;;;;;2.5;0.8;;;;;;;19.59;61.61426;960.384;;;;
2020/08/24 09:45:50;;;;;;;3.9;1.2;;;;;;;19.53;59.77148;960.4114;;;;
2020/08/24 09:48:15;;;;;;;2.9;1.2;;;;;;;19.44;59.66504;960.4109;;;;
2020/08/24 09:50:48;;;;;;;3.7;1.1;;;;;;;19.65;60.5752;960.4372;;;;
2020/08/24 09:53:13;;;;;;;2.5;1;;;;;;;19.71;58.16211;960.4559;;;;
2020/08/24 09:55:39;;;;;;;2;0.9;;;;;;;19.9;58.89258;960.4059;;;;
2020/08/24 09:58:04;;;;;;;3.1;0.9;;;;;;;19.96;57.06641;960.3572;;;;
2020/08/24 10:00:34;;;;;;;3.3;0.8;;;;;;;19.77;56.92285;960.341;;;;
2020/08/24 10:02:59;;;;;;;7.4;4.4;;;;;;;19.93;58.41602;960.307;;;;
2020/08/24 10:05:24;;;;;;;3.1;1.5;;;;;;;20.19;58.61426;960.2726;;;;
2020/08/24 10:07:49;;;;;;;3.2;0.9;;;;;;;20.1;59.31934;960.3;;;;
2020/08/24 10:10:15;;;;;;;3.2;1;;;;;;;20.12;55.80566;960.3013;;;;
2020/08/24 10:12:40;;;;;;;5.4;0.9;;;;;;;20.26;56.64648;960.2658;;;;
2020/08/24 10:15:05;;;;;;;3.1;0.8;;;;;;;20.19;56.94336;960.2628;;;;
2020/08/24 10:17:30;;;;;;;3.2;1;;;;;;;20.35;58.25977;960.2468;;;;
2020/08/24 10:19:55;;;;;;;3.1;0.9;;;;;;;20.44;56.5166;960.2675;;;;
2020/08/24 10:22:21;;;;;;;5;1.1;;;;;;;20.17;58.61133;960.1997;;;;
2020/08/24 10:24:46;;;;;;;2.7;1;;;;;;;20.21;57.09766;960.1617;;;;
2020/08/24 10:27:11;;;;;;;3.5;1.1;;;;;;;20.28;56.64844;960.1295;;;;
2020/08/24 10:29:36;;;;;;;2.9;1;;;;;;;20.39;55.31055;960.1184;;;;
2020/08/24 10:32:01;;;;;;;3.3;0.9;;;;;;;20.5;56.08789;960.1058;;;;
2020/08/24 10:34:26;;;;;;;4.2;1.1;;;;;;;20.07;54.45801;960.0621;;;;
2020/08/24 10:36:51;;;;;;;2.5;1.1;;;;;;;20.02;56.22754;960.0508;;;;
2020/08/24 10:39:16;;;;;;;2.8;0.9;;;;;;;20.44;56.99805;960.0854;;;;
2020/08/24 10:41:43;;;;;;;3.5;1.1;;;;;;;20.73;59.22754;959.9963;;;;
2020/08/24 10:44:08;;;;;;;4.2;1.4;;;;;;;20.47;56.15527;960.0021;;;;
2020/08/24 10:46:37;;;;;;;3.7;1;;;;;;;20.3;55.68652;959.9969;;;;
2020/08/24 10:49:02;;;;;;;4.9;1.3;;;;;;;20.28;58.36719;959.9353;;;;
2020/08/24 10:51:27;;;;;;;3.7;1;;;;;;;20.45;56.77637;959.9144;;;;
2020/08/24 10:53:52;;;;;;;2.3;1;;;;;;;20.66;55.48438;959.8446;;;;
2020/08/24 10:56:17;;;;;;;2.2;0.9;;;;;;;20.75;53.88281;959.7946;;;;
2020/08/24 10:58:42;;;;;;;3.4;0.8;;;;;;;21.05;54.69629;959.8223;;;;
2020/08/24 11:01:10;;;;;;;2.6;0.9;;;;;;;21.32;53.67969;959.7808;;;;
2020/08/24 11:03:35;;;;;;;2.7;1;;;;;;;20.93;54.77539;959.7438;;;;
2020/08/24 11:06:00;;;;;;;2.4;1;;;;;;;21.24;54.79199;959.7462;;;;
2020/08/24 11:08:27;;;;;;;3;1.1;;;;;;;21.2;53.07617;959.7401;;;;
2020/08/24 11:10:54;;;;;;;5.6;1.2;;;;;;;21.54;55.16895;959.772;;;;
2020/08/24 11:13:19;;;;;;;3.9;1.2;;;;;;;21.52;52.83008;959.7972;;;;
2020/08/24 11:15:45;;;;;;;1.7;0.8;;;;;;;21.36;52.38672;959.7787;;;;
2020/08/24 11:18:12;;;;;;;2.3;0.9;;;;;;;21.24;52.50293;959.7676;;;;
2020/08/24 11:20:37;;;;;;;3.6;1.1;;;;;;;21.21;51.22559;959.7673;;;;
2020/08/24 11:23:02;;;;;;;3.4;1;;;;;;;21.35;52.16113;959.7353;;;;
2020/08/24 11:25:27;;;;;;;2.5;0.9;;;;;;;21.65;51.18164;959.7061;;;;
2020/08/24 11:27:53;;;;;;;3.3;1;;;;;;;21.67;52.4707;959.7455;;;;
2020/08/24 11:30:21;;;;;;;3.5;1;;;;;;;21.49;52.66113;959.7391;;;;
2020/08/24 11:32:48;;;;;;;3.4;0.8;;;;;;;21.37;51.65625;959.7262;;;;
2020/08/24 11:35:15;;;;;;;2.1;0.9;;;;;;;21.41;51.875;959.6859;;;;
2020/08/24 11:37:40;;;;;;;2.6;1.5;;;;;;;21.25;51.57227;959.6167;;;;
2020/08/24 11:40:05;;;;;;;2.3;1.2;;;;;;;21.33;53.44531;959.6278;;;;
2020/08/24 11:42:30;;;;;;;4.3;1.8;;;;;;;21.13;51.90039;959.6217;;;;
2020/08/24 11:44:55;;;;;;;3.3;1.3;;;;;;;20.9;52.79199;959.6342;;;;
2020/08/24 11:47:20;;;;;;;2.1;1;;;;;;;21.06;51.65625;959.6052;;;;
2020/08/24 11:49:45;;;;;;;2.9;1.1;;;;;;;21.11;50.80176;959.5633;;;;
2020/08/24 11:52:10;;;;;;;2.7;1.4;;;;;;;21.49;52.94434;959.6082;;;;
2020/08/24 11:54:35;;;;;;;3.2;1;;;;;;;21.32;51.3916;959.6057;;;;
2020/08/24 11:57:01;;;;;;;3.1;1.1;;;;;;;21.23;52.11133;959.5806;;;;
2020/08/24 11:59:26;;;;;;;3.1;1;;;;;;;21.3;51.1416;959.6088;;;;
2020/08/24 12:01:53;;;;;;;5;1.1;;;;;;;21.54;51.38184;959.5694;;;;
2020/08/24 12:04:19;;;;;;;3.6;0.9;;;;;;;21.72;51.48438;959.5768;;;;
2020/08/24 12:06:44;;;;;;;3.2;1.3;;;;;;;21.72;49.7373;959.5387;;;;
2020/08/24 12:09:09;;;;;;;2.4;1;;;;;;;21.3;49.01758;959.4788;;;;
2020/08/24 12:11:34;;;;;;;2.9;1.7;;;;;;;21.41;50.48242;959.4504;;;;
2020/08/24 12:13:59;;;;;;;4.3;1.1;;;;;;;21.1;50.94238;959.4268;;;;
2020/08/24 12:16:24;;;;;;;2.3;1;;;;;;;21.37;53.5332;959.4036;;;;
2020/08/24 12:18:49;;;;;;;3.3;1.2;;;;;;;21.41;50.56543;959.4553;;;;
2020/08/24 12:21:14;;;;;;;2.1;1;;;;;;;21.63;51.56836;959.3847;;;;
2020/08/24 12:23:39;;;;;;;2.3;1;;;;;;;22.06;51.1709;959.4027;;;;
2020/08/24 12:26:04;;;;;;;3.6;1.2;;;;;;;21.57;49.76855;959.4022;;;;
2020/08/24 12:28:29;;;;;;;2;0.9;;;;;;;21.31;52.00391;959.2967;;;;
2020/08/24 12:30:55;;;;;;;3.7;1.1;;;;;;;21.93;50.09277;959.339;;;;
2020/08/24 12:33:26;;;;;;;2.1;0.9;;;;;;;22.2;48.63379;959.377;;;;
2020/08/24 12:35:51;;;;;;;2.8;1.1;;;;;;;22.54;48.99023;959.3395;;;;
2020/08/24 12:38:16;;;;;;;2.7;1.1;;;;;;;22.27;47.33984;959.4567;;;;
2020/08/24 12:40:42;;;;;;;3;0.9;;;;;;;22.62;46.90527;959.4495;;;;
2020/08/24 12:43:07;;;;;;;2.5;1;;;;;;;22.74;46.23047;959.4028;;;;
2020/08/24 12:45:33;;;;;;;1.8;0.9;;;;;;;22.81;44.9248;959.3692;;;;
2020/08/24 12:47:59;;;;;;;2.3;1;;;;;;;22.82;46.0498;959.313;;;;
2020/08/24 12:50:24;;;;;;;2.5;0.9;;;;;;;22.79;45.14746;959.3189;;;;
2020/08/24 12:52:49;;;;;;;2.6;0.9;;;;;;;22.79;46.0127;959.3597;;;;
2020/08/24 12:55:15;;;;;;;1.7;0.8;;;;;;;23.06;46.14551;959.2472;;;;
2020/08/24 12:57:40;;;;;;;1.9;1;;;;;;;23.23;46.61426;959.245;;;;
2020/08/24 13:00:06;;;;;;;3;0.9;;;;;;;22.6;46.55957;959.1974;;;;
2020/08/24 13:02:32;;;;;;;3.3;1.1;;;;;;;22.84;46.58398;959.2386;;;;
2020/08/24 13:04:57;;;;;;;3.3;1;;;;;;;22.96;46.79883;959.188;;;;
2020/08/24 13:07:22;;;;;;;2.1;1;;;;;;;22.65;47.51172;959.1992;;;;
2020/08/24 13:09:47;;;;;;;2;0.9;;;;;;;22.45;48.55469;959.1469;;;;
2020/08/24 13:12:12;;;;;;;3;1;;;;;;;22.61;49.32813;959.1206;;;;
2020/08/24 13:14:38;;;;;;;2.7;0.9;;;;;;;22.57;48.04785;959.037;;;;
2020/08/24 13:17:05;;;;;;;2.1;0.9;;;;;;;22.27;48.09668;959.0497;;;;
2020/08/24 13:19:30;;;;;;;3.1;0.9;;;;;;;22.21;48.3623;959.0264;;;;
2020/08/24 13:22:00;;;;;;;3.5;1.1;;;;;;;22.26;49.5498;959.0469;;;;
2020/08/24 13:24:25;;;;;;;4.3;1;;;;;;;22.2;49.89746;959.055;;;;
2020/08/24 13:26:50;;;;;;;2.6;1;;;;;;;22.18;49.04492;959.0903;;;;
2020/08/24 13:29:15;;;;;;;2.6;0.9;;;;;;;22.38;48.57031;959.0567;;;;
2020/08/24 13:31:40;;;;;;;2.8;0.9;;;;;;;22.58;49.31348;959.0441;;;;
2020/08/24 13:34:05;;;;;;;3.5;1.2;;;;;;;22.73;49.16406;959.1013;;;;
2020/08/24 13:36:30;;;;;;;1.9;1;;;;;;;22.53;48.63379;959.0698;;;;
2020/08/24 13:38:56;;;;;;;2.4;0.9;;;;;;;22.56;49.93945;958.975;;;;
2020/08/24 13:41:21;;;;;;;2.5;1;;;;;;;22.44;49.28613;959.025;;;;
2020/08/24 13:43:46;;;;;;;3.8;1.1;;;;;;;22.61;49.94434;958.9584;;;;
2020/08/24 13:46:11;;;;;;;3.1;0.9;;;;;;;22.78;49.69141;958.9467;;;;
2020/08/24 13:48:36;;;;;;;4.9;1.1;;;;;;;22.53;50.1709;959.0292;;;;
2020/08/24 13:51:01;;;;;;;2.8;1;;;;;;;22.39;49.60059;958.9291;;;;
2020/08/24 13:53:26;;;;;;;3.4;1;;;;;;;22.28;49.19824;958.9453;;;;
2020/08/24 13:55:51;;;;;;;2.3;1;;;;;;;22.28;49.375;958.9514;;;;
2020/08/24 13:58:16;;;;;;;3.4;1.2;;;;;;;22.25;49.91602;958.9547;;;;
2020/08/24 14:00:41;;;;;;;2.6;0.9;;;;;;;22.36;48.83984;958.9492;;;;
2020/08/24 14:03:06;;;;;;;1.9;0.9;;;;;;;22.56;50.09277;958.9152;;;;
2020/08/24 14:05:31;;;;;;;1.7;0.9;;;;;;;22.67;49.60938;958.887;;;;
2020/08/24 14:07:56;;;;;;;2.2;1;;;;;;;22.92;49.16113;958.9037;;;;
2020/08/24 14:10:22;;;;;;;4.1;1.1;;;;;;;22.41;50.57227;958.9113;;;;
2020/08/24 14:12:51;;;;;;;4.1;1.3;;;;;;;22.42;50.60742;958.9633;;;;
2020/08/24 14:15:27;;;;;;;2.4;1;;;;;;;22.48;49.39746;958.9357;;;;
2020/08/24 14:17:52;;;;;;;2.9;1;;;;;;;22.36;49.30176;958.9333;;;;
2020/08/24 14:20:20;;;;;;;1.9;0.9;;;;;;;22.36;49.9873;958.8837;;;;
2020/08/24 14:22:46;;;;;;;3.5;1.1;;;;;;;22.16;50.53125;958.9303;;;;
2020/08/24 14:25:19;;;;;;;2;0.9;;;;;;;22.1;50.33594;958.8663;;;;
2020/08/24 14:27:44;;;;;;;2;1.1;;;;;;;22.35;49.83203;958.8391;;;;
2020/08/24 14:30:18;;;;;;;2.8;1;;;;;;;22.08;50.66504;958.8189;;;;
2020/08/24 14:32:43;;;;;;;2.9;1.1;;;;;;;22.22;51.37793;958.7826;;;;
2020/08/24 14:35:08;;;;;;;2.6;1;;;;;;;22.21;50.50293;958.8053;;;;
2020/08/24 14:37:33;;;;;;;3.1;1;;;;;;;21.98;50.45117;958.7991;;;;
2020/08/24 14:39:58;;;;;;;3.1;1.2;;;;;;;22.13;51.2373;958.7202;;;;
2020/08/24 14:42:23;;;;;;;4;1.4;;;;;;;21.71;51.40137;958.8117;;;;
2020/08/24 14:44:48;;;;;;;2.7;0.9;;;;;;;21.85;54.47461;958.7902;;;;
2020/08/24 14:47:13;;;;;;;4;1.4;;;;;;;21.93;52.36133;958.7813;;;;
2020/08/24 14:49:38;;;;;;;2.3;1.1;;;;;;;21.86;51.44238;958.8437;;;;
2020/08/24 14:52:03;;;;;;;2.7;1;;;;;;;21.91;51.80273;958.7827;;;;
2020/08/24 14:54:28;;;;;;;2.3;1.2;;;;;;;21.65;51.49023;958.8539;;;;
2020/08/24 14:56:54;;;;;;;2.9;1.1;;;;;;;21.74;51.57031;958.855;;;;
2020/08/24 14:59:19;;;;;;;5.3;1.3;;;;;;;21.76;51.37207;958.8265;;;;
2020/08/24 15:01:44;;;;;;;2.7;1.2;;;;;;;21.64;52.14746;958.8354;;;;
2020/08/24 15:04:09;;;;;;;3.2;1.4;;;;;;;21.52;52.59473;958.8351;;;;
2020/08/24 15:06:34;;;;;;;3.3;1.2;;;;;;;21.45;52.52832;958.837;;;;
2020/08/24 15:08:59;;;;;;;3.4;1;;;;;;;21.45;52.47949;958.8276;;;;
2020/08/24 15:11:24;;;;;;;2.4;1.2;;;;;;;21.36;52.16309;958.8431;;;;